sensor_id;sensor_type;location;lat;lon;timestamp;temperature;humidity
9083;DHT22;4577;48.704;9.000;2023-10-31T00:01:20;12.00;99.90
9083;DHT22;4577;48.704;9.000;2023-10-31T00:03:46;12.00;99.90
9083;DHT22;4577;48.704;9.000;2023-10-31T00:06:12;12.10;99.90
9083;DHT22;4577;48.704;9.000;2023-10-31T00:11:03;12.20;99.90
9083;DHT22;4577;48.704;9.000;2023-10-31T00:13:29;12.40;99.90
9083;DHT22;4577;48.704;9.000;2023-10-31T00:18:21;12.00;99.90
9083;DHT22;4577;48.704;9.000;2023-10-31T00:20:46;11.90;99.90
9083;DHT22;4577;48.704;9.000;2023-10-31T00:23:13;11.90;99.90
9083;DHT22;4577;48.704;9.000;2023-10-31T00:25:39;12.10;99.90
9083;DHT22;4577;48.704;9.000;2023-10-31T00:28:04;11.80;99.90
9083;DHT22;4577;48.704;9.000;2023-10-31T00:30:30;12.00;99.90
9083;DHT22;4577;48.704;9.000;2023-10-31T00:32:56;11.60;99.90
9083;DHT22;4577;48.704;9.000;2023-10-31T00:35:22;11.70;99.90
9083;DHT22;4577;48.704;9.000;2023-10-31T00:40:13;11.60;99.90
9083;DHT22;4577;48.704;9.000;2023-10-31T00:42:42;11.90;99.90
9083;DHT22;4577;48.704;9.000;2023-10-31T00:47:34;11.70;99.90
9083;DHT22;4577;48.704;9.000;2023-10-31T00:52:26;11.40;99.90
9083;DHT22;4577;48.704;9.000;2023-10-31T00:54:52;11.40;99.90
9083;DHT22;4577;48.704;9.000;2023-10-31T01:02:09;11.10;99.90
9083;DHT22;4577;48.704;9.000;2023-10-31T01:04:36;11.40;99.90
9083;DHT22;4577;48.704;9.000;2023-10-31T01:07:03;11.40;99.90
9083;DHT22;4577;48.704;9.000;2023-10-31T01:09:28;11.20;99.90
9083;DHT22;4577;48.704;9.000;2023-10-31T01:11:54;11.40;99.90
9083;DHT22;4577;48.704;9.000;2023-10-31T01:14:20;11.20;99.90
9083;DHT22;4577;48.704;9.000;2023-10-31T01:16:45;11.30;99.90
9083;DHT22;4577;48.704;9.000;2023-10-31T01:19:11;11.10;99.90
9083;DHT22;4577;48.704;9.000;2023-10-31T01:21:36;10.90;99.90
9083;DHT22;4577;48.704;9.000;2023-10-31T01:24:02;10.90;99.90
9083;DHT22;4577;48.704;9.000;2023-10-31T01:26:28;10.80;99.90
9083;DHT22;4577;48.704;9.000;2023-10-31T01:28:54;10.90;99.90
9083;DHT22;4577;48.704;9.000;2023-10-31T01:31:19;11.10;99.90
9083;DHT22;4577;48.704;9.000;2023-10-31T01:33:45;10.80;99.90
9083;DHT22;4577;48.704;9.000;2023-10-31T01:36:11;10.80;99.90
9083;DHT22;4577;48.704;9.000;2023-10-31T01:38:38;10.80;99.90
9083;DHT22;4577;48.704;9.000;2023-10-31T01:41:04;10.90;99.90
9083;DHT22;4577;48.704;9.000;2023-10-31T01:43:31;11.00;99.90
9083;DHT22;4577;48.704;9.000;2023-10-31T01:45:57;11.20;99.90
9083;DHT22;4577;48.704;9.000;2023-10-31T01:48:23;10.90;99.90
9083;DHT22;4577;48.704;9.000;2023-10-31T01:50:50;10.80;99.90
9083;DHT22;4577;48.704;9.000;2023-10-31T01:53:16;10.90;99.90
9083;DHT22;4577;48.704;9.000;2023-10-31T01:55:43;11.00;99.90
9083;DHT22;4577;48.704;9.000;2023-10-31T01:58:10;10.90;99.90
9083;DHT22;4577;48.704;9.000;2023-10-31T02:00:39;10.90;99.90
9083;DHT22;4577;48.704;9.000;2023-10-31T02:03:07;10.90;99.90
9083;DHT22;4577;48.704;9.000;2023-10-31T02:05:34;11.00;99.90
9083;DHT22;4577;48.704;9.000;2023-10-31T02:08:01;11.00;99.90
9083;DHT22;4577;48.704;9.000;2023-10-31T02:10:26;11.10;99.90
9083;DHT22;4577;48.704;9.000;2023-10-31T02:12:52;11.20;99.90
9083;DHT22;4577;48.704;9.000;2023-10-31T02:15:18;11.30;99.90
9083;DHT22;4577;48.704;9.000;2023-10-31T02:17:43;11.30;99.90
9083;DHT22;4577;48.704;9.000;2023-10-31T02:20:09;11.30;99.90
9083;DHT22;4577;48.704;9.000;2023-10-31T02:22:35;11.40;99.90
9083;DHT22;4577;48.704;9.000;2023-10-31T02:25:01;11.10;99.90
9083;DHT22;4577;48.704;9.000;2023-10-31T02:27:26;11.40;99.90
9083;DHT22;4577;48.704;9.000;2023-10-31T02:29:52;11.40;99.90
9083;DHT22;4577;48.704;9.000;2023-10-31T02:32:18;11.40;99.90
9083;DHT22;4577;48.704;9.000;2023-10-31T02:34:46;11.40;99.90
9083;DHT22;4577;48.704;9.000;2023-10-31T02:37:12;11.40;99.90
9083;DHT22;4577;48.704;9.000;2023-10-31T02:39:38;11.40;99.90
9083;DHT22;4577;48.704;9.000;2023-10-31T02:42:04;11.40;99.90
9083;DHT22;4577;48.704;9.000;2023-10-31T02:44:29;11.40;99.90
9083;DHT22;4577;48.704;9.000;2023-10-31T02:46:55;11.40;99.90
9083;DHT22;4577;48.704;9.000;2023-10-31T02:49:21;11.40;99.90
9083;DHT22;4577;48.704;9.000;2023-10-31T02:51:47;11.40;99.90
9083;DHT22;4577;48.704;9.000;2023-10-31T02:54:12;11.40;99.90
9083;DHT22;4577;48.704;9.000;2023-10-31T02:56:38;11.50;99.90
9083;DHT22;4577;48.704;9.000;2023-10-31T02:59:04;11.40;99.90
9083;DHT22;4577;48.704;9.000;2023-10-31T03:01:30;11.40;99.90
9083;DHT22;4577;48.704;9.000;2023-10-31T03:03:56;11.40;99.90
9083;DHT22;4577;48.704;9.000;2023-10-31T03:06:22;11.40;99.90
9083;DHT22;4577;48.704;9.000;2023-10-31T03:08:47;11.40;99.90
9083;DHT22;4577;48.704;9.000;2023-10-31T03:11:26;11.40;99.90
9083;DHT22;4577;48.704;9.000;2023-10-31T03:13:52;11.30;99.90
9083;DHT22;4577;48.704;9.000;2023-10-31T03:16:22;11.30;99.90
9083;DHT22;4577;48.704;9.000;2023-10-31T03:18:47;11.30;99.90
9083;DHT22;4577;48.704;9.000;2023-10-31T03:21:13;11.30;99.90
9083;DHT22;4577;48.704;9.000;2023-10-31T03:23:41;11.30;99.90
9083;DHT22;4577;48.704;9.000;2023-10-31T03:26:07;11.30;99.90
9083;DHT22;4577;48.704;9.000;2023-10-31T03:28:32;11.20;99.90
9083;DHT22;4577;48.704;9.000;2023-10-31T03:30:58;11.30;99.90
9083;DHT22;4577;48.704;9.000;2023-10-31T03:33:23;11.30;99.90
9083;DHT22;4577;48.704;9.000;2023-10-31T03:35:49;11.30;99.90
9083;DHT22;4577;48.704;9.000;2023-10-31T03:38:15;11.30;99.90
9083;DHT22;4577;48.704;9.000;2023-10-31T03:40:41;11.20;99.90
9083;DHT22;4577;48.704;9.000;2023-10-31T03:43:06;11.30;99.90
9083;DHT22;4577;48.704;9.000;2023-10-31T03:45:32;11.20;99.90
9083;DHT22;4577;48.704;9.000;2023-10-31T03:47:58;11.20;99.90
9083;DHT22;4577;48.704;9.000;2023-10-31T03:50:24;11.20;99.90
9083;DHT22;4577;48.704;9.000;2023-10-31T03:52:49;11.20;99.90
9083;DHT22;4577;48.704;9.000;2023-10-31T03:55:15;11.20;99.90
9083;DHT22;4577;48.704;9.000;2023-10-31T03:57:41;11.20;99.90
9083;DHT22;4577;48.704;9.000;2023-10-31T04:00:07;11.20;99.90
9083;DHT22;4577;48.704;9.000;2023-10-31T04:02:33;11.20;99.90
9083;DHT22;4577;48.704;9.000;2023-10-31T04:04:58;10.90;99.90
9083;DHT22;4577;48.704;9.000;2023-10-31T04:07:24;10.70;99.90
9083;DHT22;4577;48.704;9.000;2023-10-31T04:09:50;11.10;99.90
9083;DHT22;4577;48.704;9.000;2023-10-31T04:12:16;10.60;99.90
9083;DHT22;4577;48.704;9.000;2023-10-31T04:14:42;10.90;99.90
9083;DHT22;4577;48.704;9.000;2023-10-31T04:17:08;10.80;99.90
9083;DHT22;4577;48.704;9.000;2023-10-31T04:19:34;10.90;99.90
9083;DHT22;4577;48.704;9.000;2023-10-31T04:21:59;11.00;99.90
9083;DHT22;4577;48.704;9.000;2023-10-31T04:24:25;11.00;99.90
9083;DHT22;4577;48.704;9.000;2023-10-31T04:26:50;11.00;99.90
9083;DHT22;4577;48.704;9.000;2023-10-31T04:31:42;10.90;99.90
9083;DHT22;4577;48.704;9.000;2023-10-31T04:34:08;11.10;99.90
9083;DHT22;4577;48.704;9.000;2023-10-31T04:36:33;10.90;99.90
9083;DHT22;4577;48.704;9.000;2023-10-31T04:38:59;10.90;99.90
9083;DHT22;4577;48.704;9.000;2023-10-31T04:41:25;11.00;99.90
9083;DHT22;4577;48.704;9.000;2023-10-31T04:43:50;11.00;99.90
9083;DHT22;4577;48.704;9.000;2023-10-31T04:46:16;10.70;99.90
9083;DHT22;4577;48.704;9.000;2023-10-31T04:48:42;10.60;99.90
9083;DHT22;4577;48.704;9.000;2023-10-31T04:51:07;10.60;99.90
9083;DHT22;4577;48.704;9.000;2023-10-31T04:53:33;11.40;99.90
9083;DHT22;4577;48.704;9.000;2023-10-31T04:58:26;11.00;99.90
9083;DHT22;4577;48.704;9.000;2023-10-31T05:00:52;10.70;99.90
9083;DHT22;4577;48.704;9.000;2023-10-31T05:03:17;10.80;99.90
9083;DHT22;4577;48.704;9.000;2023-10-31T05:08:09;10.80;99.90
9083;DHT22;4577;48.704;9.000;2023-10-31T05:10:35;10.80;99.90
9083;DHT22;4577;48.704;9.000;2023-10-31T05:13:01;10.80;99.90
9083;DHT22;4577;48.704;9.000;2023-10-31T05:17:56;10.40;99.90
9083;DHT22;4577;48.704;9.000;2023-10-31T05:20:21;10.40;99.90
9083;DHT22;4577;48.704;9.000;2023-10-31T05:22:47;10.50;99.90
9083;DHT22;4577;48.704;9.000;2023-10-31T05:25:12;10.40;99.90
9083;DHT22;4577;48.704;9.000;2023-10-31T05:27:39;10.30;99.90
9083;DHT22;4577;48.704;9.000;2023-10-31T05:30:05;10.40;99.90
9083;DHT22;4577;48.704;9.000;2023-10-31T05:32:31;10.10;99.90
9083;DHT22;4577;48.704;9.000;2023-10-31T05:34:56;10.00;99.90
9083;DHT22;4577;48.704;9.000;2023-10-31T05:37:22;10.10;99.90
9083;DHT22;4577;48.704;9.000;2023-10-31T05:39:48;10.20;99.90
9083;DHT22;4577;48.704;9.000;2023-10-31T05:42:13;10.50;99.90
9083;DHT22;4577;48.704;9.000;2023-10-31T05:47:05;10.10;99.90
9083;DHT22;4577;48.704;9.000;2023-10-31T05:49:31;10.10;99.90
9083;DHT22;4577;48.704;9.000;2023-10-31T05:51:57;10.20;99.90
9083;DHT22;4577;48.704;9.000;2023-10-31T05:54:22;10.10;99.90
9083;DHT22;4577;48.704;9.000;2023-10-31T05:59:14;10.20;99.90
9083;DHT22;4577;48.704;9.000;2023-10-31T06:01:40;10.20;99.90
9083;DHT22;4577;48.704;9.000;2023-10-31T06:04:06;10.30;99.90
9083;DHT22;4577;48.704;9.000;2023-10-31T06:06:32;10.20;99.90
9083;DHT22;4577;48.704;9.000;2023-10-31T06:08:58;10.10;99.90
9083;DHT22;4577;48.704;9.000;2023-10-31T06:11:24;10.30;99.90
9083;DHT22;4577;48.704;9.000;2023-10-31T06:13:49;10.30;99.90
9083;DHT22;4577;48.704;9.000;2023-10-31T06:16:15;10.30;99.90
9083;DHT22;4577;48.704;9.000;2023-10-31T06:18:41;10.20;99.90
9083;DHT22;4577;48.704;9.000;2023-10-31T06:23:36;10.20;99.90
9083;DHT22;4577;48.704;9.000;2023-10-31T06:26:02;10.20;99.90
9083;DHT22;4577;48.704;9.000;2023-10-31T06:28:27;10.20;99.90
9083;DHT22;4577;48.704;9.000;2023-10-31T06:30:53;10.30;99.90
9083;DHT22;4577;48.704;9.000;2023-10-31T06:33:18;10.20;99.90
9083;DHT22;4577;48.704;9.000;2023-10-31T06:35:44;10.20;99.90
9083;DHT22;4577;48.704;9.000;2023-10-31T06:40:36;10.30;99.90
9083;DHT22;4577;48.704;9.000;2023-10-31T06:43:02;10.20;99.90
9083;DHT22;4577;48.704;9.000;2023-10-31T06:47:54;10.20;99.90
9083;DHT22;4577;48.704;9.000;2023-10-31T06:50:19;10.20;99.90
9083;DHT22;4577;48.704;9.000;2023-10-31T06:52:45;10.20;99.90
9083;DHT22;4577;48.704;9.000;2023-10-31T06:57:37;10.50;99.90
9083;DHT22;4577;48.704;9.000;2023-10-31T07:00:03;10.60;99.90
9083;DHT22;4577;48.704;9.000;2023-10-31T07:02:29;10.70;99.90
9083;DHT22;4577;48.704;9.000;2023-10-31T07:04:54;10.60;99.90
9083;DHT22;4577;48.704;9.000;2023-10-31T07:09:46;10.60;99.90
9083;DHT22;4577;48.704;9.000;2023-10-31T07:12:12;10.60;99.90
9083;DHT22;4577;48.704;9.000;2023-10-31T07:14:40;10.80;99.90
9083;DHT22;4577;48.704;9.000;2023-10-31T07:17:05;10.60;99.90
9083;DHT22;4577;48.704;9.000;2023-10-31T07:21:57;10.70;99.90
9083;DHT22;4577;48.704;9.000;2023-10-31T07:26:49;11.00;99.90
9083;DHT22;4577;48.704;9.000;2023-10-31T07:29:14;10.70;99.90
9083;DHT22;4577;48.704;9.000;2023-10-31T07:31:40;10.60;99.90
9083;DHT22;4577;48.704;9.000;2023-10-31T07:34:06;10.80;99.90
9083;DHT22;4577;48.704;9.000;2023-10-31T07:39:00;10.70;99.90
9083;DHT22;4577;48.704;9.000;2023-10-31T07:41:26;10.90;99.90
9083;DHT22;4577;48.704;9.000;2023-10-31T07:43:52;10.80;99.90
9083;DHT22;4577;48.704;9.000;2023-10-31T07:46:17;10.80;99.90
9083;DHT22;4577;48.704;9.000;2023-10-31T07:51:09;11.10;99.90
9083;DHT22;4577;48.704;9.000;2023-10-31T07:53:35;10.50;99.90
9083;DHT22;4577;48.704;9.000;2023-10-31T07:56:00;10.90;99.90
9083;DHT22;4577;48.704;9.000;2023-10-31T08:00:52;10.90;99.90
9083;DHT22;4577;48.704;9.000;2023-10-31T08:10:36;11.20;99.90
9083;DHT22;4577;48.704;9.000;2023-10-31T08:13:01;10.50;99.90
9083;DHT22;4577;48.704;9.000;2023-10-31T08:15:27;11.30;99.90
9083;DHT22;4577;48.704;9.000;2023-10-31T08:17:53;10.80;99.90
9083;DHT22;4577;48.704;9.000;2023-10-31T08:20:18;10.90;99.90
9083;DHT22;4577;48.704;9.000;2023-10-31T08:22:45;10.90;99.90
9083;DHT22;4577;48.704;9.000;2023-10-31T08:25:11;10.90;99.90
9083;DHT22;4577;48.704;9.000;2023-10-31T08:27:37;11.50;99.90
9083;DHT22;4577;48.704;9.000;2023-10-31T08:30:03;10.90;99.90
9083;DHT22;4577;48.704;9.000;2023-10-31T08:37:23;11.00;99.90
9083;DHT22;4577;48.704;9.000;2023-10-31T08:39:48;11.10;99.90
9083;DHT22;4577;48.704;9.000;2023-10-31T08:42:14;11.30;99.90
9083;DHT22;4577;48.704;9.000;2023-10-31T08:44:40;11.10;99.90
9083;DHT22;4577;48.704;9.000;2023-10-31T08:47:06;11.20;99.90
9083;DHT22;4577;48.704;9.000;2023-10-31T08:49:32;11.10;99.90
9083;DHT22;4577;48.704;9.000;2023-10-31T08:51:58;11.10;99.90
9083;DHT22;4577;48.704;9.000;2023-10-31T08:54:23;11.20;99.90
9083;DHT22;4577;48.704;9.000;2023-10-31T08:56:49;11.50;99.90
9083;DHT22;4577;48.704;9.000;2023-10-31T08:59:15;11.30;99.90
9083;DHT22;4577;48.704;9.000;2023-10-31T09:01:41;11.10;99.90
9083;DHT22;4577;48.704;9.000;2023-10-31T09:04:07;11.30;99.90
9083;DHT22;4577;48.704;9.000;2023-10-31T09:06:32;11.10;99.90
9083;DHT22;4577;48.704;9.000;2023-10-31T09:08:58;10.90;99.90
9083;DHT22;4577;48.704;9.000;2023-10-31T09:11:24;11.60;99.90
9083;DHT22;4577;48.704;9.000;2023-10-31T09:13:50;11.20;99.90
9083;DHT22;4577;48.704;9.000;2023-10-31T09:16:15;11.30;99.90
9083;DHT22;4577;48.704;9.000;2023-10-31T09:21:09;11.30;99.90
9083;DHT22;4577;48.704;9.000;2023-10-31T09:26:01;11.30;99.90
9083;DHT22;4577;48.704;9.000;2023-10-31T09:28:27;11.40;99.90
9083;DHT22;4577;48.704;9.000;2023-10-31T09:30:53;11.40;99.90
9083;DHT22;4577;48.704;9.000;2023-10-31T09:33:19;11.60;99.90
9083;DHT22;4577;48.704;9.000;2023-10-31T09:35:44;11.60;99.90
9083;DHT22;4577;48.704;9.000;2023-10-31T09:40:38;11.80;99.90
9083;DHT22;4577;48.704;9.000;2023-10-31T09:43:04;12.30;99.90
9083;DHT22;4577;48.704;9.000;2023-10-31T09:45:30;11.90;99.90
9083;DHT22;4577;48.704;9.000;2023-10-31T09:47:56;12.00;99.90
9083;DHT22;4577;48.704;9.000;2023-10-31T09:50:23;12.00;99.90
9083;DHT22;4577;48.704;9.000;2023-10-31T09:55:15;11.70;99.90
9083;DHT22;4577;48.704;9.000;2023-10-31T09:57:41;11.70;99.90
9083;DHT22;4577;48.704;9.000;2023-10-31T10:00:07;11.70;99.90
9083;DHT22;4577;48.704;9.000;2023-10-31T10:05:00;11.60;99.90
9083;DHT22;4577;48.704;9.000;2023-10-31T10:09:56;11.50;99.90
9083;DHT22;4577;48.704;9.000;2023-10-31T10:12:22;11.50;99.90
9083;DHT22;4577;48.704;9.000;2023-10-31T10:17:20;11.60;99.90
9083;DHT22;4577;48.704;9.000;2023-10-31T10:19:46;11.60;99.90
9083;DHT22;4577;48.704;9.000;2023-10-31T10:22:12;11.70;99.90
9083;DHT22;4577;48.704;9.000;2023-10-31T10:24:41;11.90;99.90
9083;DHT22;4577;48.704;9.000;2023-10-31T10:27:08;11.80;99.90
9083;DHT22;4577;48.704;9.000;2023-10-31T10:29:34;11.90;99.90
9083;DHT22;4577;48.704;9.000;2023-10-31T10:32:00;11.80;99.90
9083;DHT22;4577;48.704;9.000;2023-10-31T10:34:26;11.90;99.90
9083;DHT22;4577;48.704;9.000;2023-10-31T10:36:53;12.00;99.90
9083;DHT22;4577;48.704;9.000;2023-10-31T10:39:22;12.10;99.90
9083;DHT22;4577;48.704;9.000;2023-10-31T10:41:53;12.00;99.90
9083;DHT22;4577;48.704;9.000;2023-10-31T10:44:33;12.20;99.90
9083;DHT22;4577;48.704;9.000;2023-10-31T10:47:03;12.20;99.90
9083;DHT22;4577;48.704;9.000;2023-10-31T10:49:33;12.40;99.90
9083;DHT22;4577;48.704;9.000;2023-10-31T10:52:14;12.50;99.90
9083;DHT22;4577;48.704;9.000;2023-10-31T10:55:08;12.30;99.90
9083;DHT22;4577;48.704;9.000;2023-10-31T10:57:40;12.20;99.90
9083;DHT22;4577;48.704;9.000;2023-10-31T11:00:08;12.10;99.90
9083;DHT22;4577;48.704;9.000;2023-10-31T11:02:36;12.60;99.90
9083;DHT22;4577;48.704;9.000;2023-10-31T11:05:05;11.90;99.90
9083;DHT22;4577;48.704;9.000;2023-10-31T11:07:34;12.10;99.90
9083;DHT22;4577;48.704;9.000;2023-10-31T11:10:01;12.20;99.90
9083;DHT22;4577;48.704;9.000;2023-10-31T11:12:31;11.90;99.90
9083;DHT22;4577;48.704;9.000;2023-10-31T11:14:58;12.20;99.90
9083;DHT22;4577;48.704;9.000;2023-10-31T11:17:28;12.00;99.90
9083;DHT22;4577;48.704;9.000;2023-10-31T11:19:55;12.20;99.90
9083;DHT22;4577;48.704;9.000;2023-10-31T11:22:21;12.10;99.90
9083;DHT22;4577;48.704;9.000;2023-10-31T11:24:49;12.10;99.90
9083;DHT22;4577;48.704;9.000;2023-10-31T11:27:17;12.30;99.90
9083;DHT22;4577;48.704;9.000;2023-10-31T11:29:43;12.30;99.90
9083;DHT22;4577;48.704;9.000;2023-10-31T11:34:38;12.30;99.90
9083;DHT22;4577;48.704;9.000;2023-10-31T11:37:24;12.60;99.90
9083;DHT22;4577;48.704;9.000;2023-10-31T11:40:25;12.20;99.90
9083;DHT22;4577;48.704;9.000;2023-10-31T11:42:52;12.30;99.90
9083;DHT22;4577;48.704;9.000;2023-10-31T11:45:32;12.50;99.90
9083;DHT22;4577;48.704;9.000;2023-10-31T11:47:58;12.60;99.90
9083;DHT22;4577;48.704;9.000;2023-10-31T11:50:24;12.70;99.90
9083;DHT22;4577;48.704;9.000;2023-10-31T11:53:07;12.50;99.90
9083;DHT22;4577;48.704;9.000;2023-10-31T11:55:35;12.50;99.90
9083;DHT22;4577;48.704;9.000;2023-10-31T11:58:21;12.20;99.90
9083;DHT22;4577;48.704;9.000;2023-10-31T12:00:49;12.20;99.90
9083;DHT22;4577;48.704;9.000;2023-10-31T12:03:20;12.10;99.90
9083;DHT22;4577;48.704;9.000;2023-10-31T12:05:59;12.80;99.90
9083;DHT22;4577;48.704;9.000;2023-10-31T12:08:38;12.20;99.90
9083;DHT22;4577;48.704;9.000;2023-10-31T12:11:11;12.00;99.90
9083;DHT22;4577;48.704;9.000;2023-10-31T12:13:39;12.20;99.90
9083;DHT22;4577;48.704;9.000;2023-10-31T12:16:07;12.30;99.90
9083;DHT22;4577;48.704;9.000;2023-10-31T12:18:34;12.30;99.90
9083;DHT22;4577;48.704;9.000;2023-10-31T12:23:27;12.30;99.90
9083;DHT22;4577;48.704;9.000;2023-10-31T12:28:23;12.20;99.90
9083;DHT22;4577;48.704;9.000;2023-10-31T12:30:51;12.50;99.90
9083;DHT22;4577;48.704;9.000;2023-10-31T12:35:47;12.30;99.90
9083;DHT22;4577;48.704;9.000;2023-10-31T12:38:14;12.40;99.90
9083;DHT22;4577;48.704;9.000;2023-10-31T12:40:42;12.20;99.90
9083;DHT22;4577;48.704;9.000;2023-10-31T12:43:08;12.40;99.90
9083;DHT22;4577;48.704;9.000;2023-10-31T12:48:05;12.30;99.90
9083;DHT22;4577;48.704;9.000;2023-10-31T12:50:32;12.20;99.90
9083;DHT22;4577;48.704;9.000;2023-10-31T12:52:58;12.20;99.90
9083;DHT22;4577;48.704;9.000;2023-10-31T12:55:29;13.10;99.90
9083;DHT22;4577;48.704;9.000;2023-10-31T12:57:56;12.30;99.90
9083;DHT22;4577;48.704;9.000;2023-10-31T13:00:22;12.00;99.90
9083;DHT22;4577;48.704;9.000;2023-10-31T13:02:59;12.30;99.90
9083;DHT22;4577;48.704;9.000;2023-10-31T13:05:26;12.20;99.90
9083;DHT22;4577;48.704;9.000;2023-10-31T13:07:54;12.30;99.90
9083;DHT22;4577;48.704;9.000;2023-10-31T13:10:22;12.30;99.90
9083;DHT22;4577;48.704;9.000;2023-10-31T13:12:49;12.30;99.90
9083;DHT22;4577;48.704;9.000;2023-10-31T13:15:16;12.40;99.90
9083;DHT22;4577;48.704;9.000;2023-10-31T13:17:42;12.50;99.90
9083;DHT22;4577;48.704;9.000;2023-10-31T13:20:10;12.60;99.90
9083;DHT22;4577;48.704;9.000;2023-10-31T13:22:39;12.80;99.90
9083;DHT22;4577;48.704;9.000;2023-10-31T13:25:07;12.70;99.90
9083;DHT22;4577;48.704;9.000;2023-10-31T13:27:35;12.70;99.90
9083;DHT22;4577;48.704;9.000;2023-10-31T13:30:02;12.60;99.90
9083;DHT22;4577;48.704;9.000;2023-10-31T13:32:28;12.50;99.90
9083;DHT22;4577;48.704;9.000;2023-10-31T13:39:46;12.90;99.90
9083;DHT22;4577;48.704;9.000;2023-10-31T13:44:40;12.50;99.90
9083;DHT22;4577;48.704;9.000;2023-10-31T13:47:05;12.30;99.90
9083;DHT22;4577;48.704;9.000;2023-10-31T13:49:31;12.50;99.90
9083;DHT22;4577;48.704;9.000;2023-10-31T13:56:49;12.50;99.90
9083;DHT22;4577;48.704;9.000;2023-10-31T13:59:15;12.70;99.90
9083;DHT22;4577;48.704;9.000;2023-10-31T14:01:41;12.80;99.90
9083;DHT22;4577;48.704;9.000;2023-10-31T14:04:07;12.90;99.90
9083;DHT22;4577;48.704;9.000;2023-10-31T14:09:00;12.90;99.90
9083;DHT22;4577;48.704;9.000;2023-10-31T14:11:30;12.90;99.90
9083;DHT22;4577;48.704;9.000;2023-10-31T14:21:21;12.80;99.90
9083;DHT22;4577;48.704;9.000;2023-10-31T14:23:46;12.40;99.90
9083;DHT22;4577;48.704;9.000;2023-10-31T14:26:22;12.50;99.90
9083;DHT22;4577;48.704;9.000;2023-10-31T14:28:48;12.60;99.90
9083;DHT22;4577;48.704;9.000;2023-10-31T14:31:17;12.80;99.70
9083;DHT22;4577;48.704;9.000;2023-10-31T14:33:42;12.70;99.60
9083;DHT22;4577;48.704;9.000;2023-10-31T14:36:09;12.60;98.80
9083;DHT22;4577;48.704;9.000;2023-10-31T14:38:37;12.50;99.90
9083;DHT22;4577;48.704;9.000;2023-10-31T14:43:29;12.50;99.70
9083;DHT22;4577;48.704;9.000;2023-10-31T14:45:56;12.60;99.90
9083;DHT22;4577;48.704;9.000;2023-10-31T14:50:47;12.50;99.90
9083;DHT22;4577;48.704;9.000;2023-10-31T14:53:14;12.50;99.90
9083;DHT22;4577;48.704;9.000;2023-10-31T14:55:40;12.40;99.90
9083;DHT22;4577;48.704;9.000;2023-10-31T15:00:34;12.80;99.90
9083;DHT22;4577;48.704;9.000;2023-10-31T15:03:00;12.50;99.90
9083;DHT22;4577;48.704;9.000;2023-10-31T15:10:19;12.30;99.90
9083;DHT22;4577;48.704;9.000;2023-10-31T15:12:46;12.40;99.90
9083;DHT22;4577;48.704;9.000;2023-10-31T15:20:06;12.60;99.90
9083;DHT22;4577;48.704;9.000;2023-10-31T15:22:38;12.40;99.90
9083;DHT22;4577;48.704;9.000;2023-10-31T15:27:30;11.90;99.90
9083;DHT22;4577;48.704;9.000;2023-10-31T15:32:21;12.00;99.90
9083;DHT22;4577;48.704;9.000;2023-10-31T15:34:47;11.90;99.90
9083;DHT22;4577;48.704;9.000;2023-10-31T15:37:13;11.80;99.90
9083;DHT22;4577;48.704;9.000;2023-10-31T15:39:38;11.80;99.90
9083;DHT22;4577;48.704;9.000;2023-10-31T15:42:08;11.70;99.90
9083;DHT22;4577;48.704;9.000;2023-10-31T15:44:37;11.80;99.90
9083;DHT22;4577;48.704;9.000;2023-10-31T15:49:32;11.80;99.90
9083;DHT22;4577;48.704;9.000;2023-10-31T15:54:24;11.90;99.90
9083;DHT22;4577;48.704;9.000;2023-10-31T16:01:42;11.80;99.90
9083;DHT22;4577;48.704;9.000;2023-10-31T16:04:08;11.70;99.90
9083;DHT22;4577;48.704;9.000;2023-10-31T16:06:35;11.70;99.90
9083;DHT22;4577;48.704;9.000;2023-10-31T16:11:27;11.60;99.90
9083;DHT22;4577;48.704;9.000;2023-10-31T16:16:18;11.70;99.90
9083;DHT22;4577;48.704;9.000;2023-10-31T16:18:44;11.70;99.90
9083;DHT22;4577;48.704;9.000;2023-10-31T16:21:20;11.70;99.90
9083;DHT22;4577;48.704;9.000;2023-10-31T16:23:47;11.80;99.90
9083;DHT22;4577;48.704;9.000;2023-10-31T16:31:07;12.00;99.90
9083;DHT22;4577;48.704;9.000;2023-10-31T16:33:35;11.80;99.90
9083;DHT22;4577;48.704;9.000;2023-10-31T16:36:01;11.90;99.90
9083;DHT22;4577;48.704;9.000;2023-10-31T16:38:27;11.90;99.90
9083;DHT22;4577;48.704;9.000;2023-10-31T16:50:37;12.40;99.90
9083;DHT22;4577;48.704;9.000;2023-10-31T16:53:03;11.90;99.90
9083;DHT22;4577;48.704;9.000;2023-10-31T16:55:32;11.80;99.90
9083;DHT22;4577;48.704;9.000;2023-10-31T17:00:24;11.70;99.90
9083;DHT22;4577;48.704;9.000;2023-10-31T17:02:50;11.50;99.90
9083;DHT22;4577;48.704;9.000;2023-10-31T17:05:15;11.50;99.90
9083;DHT22;4577;48.704;9.000;2023-10-31T17:07:41;11.60;99.90
9083;DHT22;4577;48.704;9.000;2023-10-31T17:10:08;11.60;99.90
9083;DHT22;4577;48.704;9.000;2023-10-31T17:12:34;11.70;99.90
9083;DHT22;4577;48.704;9.000;2023-10-31T17:22:19;12.00;99.90
9083;DHT22;4577;48.704;9.000;2023-10-31T17:24:45;11.70;99.90
9083;DHT22;4577;48.704;9.000;2023-10-31T17:27:10;11.70;99.90
9083;DHT22;4577;48.704;9.000;2023-10-31T17:29:36;11.50;99.90
9083;DHT22;4577;48.704;9.000;2023-10-31T17:34:28;11.40;99.90
9083;DHT22;4577;48.704;9.000;2023-10-31T17:36:54;11.30;99.90
9083;DHT22;4577;48.704;9.000;2023-10-31T17:41:47;11.30;99.90
9083;DHT22;4577;48.704;9.000;2023-10-31T17:44:12;11.60;99.90
9083;DHT22;4577;48.704;9.000;2023-10-31T17:49:04;11.10;99.90
9083;DHT22;4577;48.704;9.000;2023-10-31T17:51:30;11.20;99.90
9083;DHT22;4577;48.704;9.000;2023-10-31T17:58:48;11.20;99.90
9083;DHT22;4577;48.704;9.000;2023-10-31T18:03:39;11.20;99.90
9083;DHT22;4577;48.704;9.000;2023-10-31T18:06:05;11.20;99.90
9083;DHT22;4577;48.704;9.000;2023-10-31T18:08:31;11.20;99.90
9083;DHT22;4577;48.704;9.000;2023-10-31T18:13:23;10.90;99.90
9083;DHT22;4577;48.704;9.000;2023-10-31T18:15:48;10.90;99.90
9083;DHT22;4577;48.704;9.000;2023-10-31T18:18:16;11.10;99.90
9083;DHT22;4577;48.704;9.000;2023-10-31T18:20:41;11.20;99.90
9083;DHT22;4577;48.704;9.000;2023-10-31T18:23:07;11.20;99.90
9083;DHT22;4577;48.704;9.000;2023-10-31T18:25:32;11.30;99.90
9083;DHT22;4577;48.704;9.000;2023-10-31T18:37:42;11.10;99.90
9083;DHT22;4577;48.704;9.000;2023-10-31T18:42:34;10.80;99.90
9083;DHT22;4577;48.704;9.000;2023-10-31T18:47:26;11.20;99.90
9083;DHT22;4577;48.704;9.000;2023-10-31T18:49:52;11.60;99.90
9083;DHT22;4577;48.704;9.000;2023-10-31T18:52:17;11.00;99.90
9083;DHT22;4577;48.704;9.000;2023-10-31T18:54:43;11.60;99.90
9083;DHT22;4577;48.704;9.000;2023-10-31T18:57:09;11.30;99.90
9083;DHT22;4577;48.704;9.000;2023-10-31T18:59:34;11.20;99.90
9083;DHT22;4577;48.704;9.000;2023-10-31T19:02:00;11.20;99.90
9083;DHT22;4577;48.704;9.000;2023-10-31T19:04:26;11.30;99.90
9083;DHT22;4577;48.704;9.000;2023-10-31T19:06:53;11.40;99.90
9083;DHT22;4577;48.704;9.000;2023-10-31T19:09:20;11.30;99.90
9083;DHT22;4577;48.704;9.000;2023-10-31T19:11:47;11.30;99.90
9083;DHT22;4577;48.704;9.000;2023-10-31T19:14:13;11.30;99.90
9083;DHT22;4577;48.704;9.000;2023-10-31T19:16:39;11.20;99.90
9083;DHT22;4577;48.704;9.000;2023-10-31T19:21:31;11.30;99.90
9083;DHT22;4577;48.704;9.000;2023-10-31T19:23:57;11.30;99.90
9083;DHT22;4577;48.704;9.000;2023-10-31T19:28:48;11.40;99.90
9083;DHT22;4577;48.704;9.000;2023-10-31T19:31:14;11.50;99.90
9083;DHT22;4577;48.704;9.000;2023-10-31T19:36:06;11.50;99.90
9083;DHT22;4577;48.704;9.000;2023-10-31T19:38:32;11.50;99.90